createdAt,value
2022-10-19T00:01:17.236Z,29.10
2022-10-19T00:06:33.952Z,30.50
2022-10-19T00:09:13.748Z,32.60
2022-10-19T00:11:43.741Z,39.10
2022-10-19T00:14:14.400Z,39.50
2022-10-19T00:16:44.672Z,42.70
2022-10-19T00:19:18.705Z,39.30
2022-10-19T00:21:47.024Z,42.60
2022-10-19T00:24:15.127Z,46.40
2022-10-19T00:26:43.204Z,43.40
2022-10-19T00:29:13.663Z,44.20
2022-10-19T00:31:42.307Z,44.00
2022-10-19T00:34:10.356Z,47.10
2022-10-19T00:36:40.936Z,44.10
2022-10-19T00:39:13.275Z,41.20
2022-10-19T00:41:41.740Z,41.00
2022-10-19T00:44:12.663Z,42.60
2022-10-19T00:46:43.959Z,51.80
2022-10-19T00:49:22.190Z,54.90
2022-10-19T00:51:55.960Z,44.70
2022-10-19T00:54:25.946Z,49.60
2022-10-19T00:56:57.428Z,44.10
2022-10-19T00:59:28.332Z,43.90
2022-10-19T01:01:56.401Z,45.60
2022-10-19T01:04:26.434Z,40.80
2022-10-19T01:06:54.799Z,35.90
2022-10-19T01:09:23.076Z,32.90
2022-10-19T01:11:59.876Z,36.20
2022-10-19T01:14:27.718Z,40.40
2022-10-19T01:17:13.536Z,38.70
2022-10-19T01:19:47.403Z,38.80
2022-10-19T01:22:40.262Z,36.30
2022-10-19T01:25:23.307Z,35.80
2022-10-19T01:28:03.371Z,41.90
2022-10-19T01:31:03.338Z,42.80
2022-10-19T01:33:52.731Z,46.80
2022-10-19T01:36:40.464Z,55.90
2022-10-19T01:39:10.406Z,45.90
2022-10-19T01:41:57.933Z,42.50
2022-10-19T01:44:42.219Z,37.20
2022-10-19T01:47:17.929Z,36.40
2022-10-19T01:49:56.844Z,38.70
2022-10-19T01:52:27.254Z,32.20
2022-10-19T01:54:58.416Z,32.30
2022-10-19T01:57:47.924Z,34.20
2022-10-19T02:00:17.278Z,31.70
2022-10-19T02:02:49.198Z,65.30
2022-10-19T02:05:21.917Z,41.80
2022-10-19T02:07:56.133Z,32.20
2022-10-19T02:10:25.783Z,34.60
2022-10-19T02:12:55.339Z,34.40
2022-10-19T02:15:26.852Z,47.10
2022-10-19T02:17:57.517Z,35.60
2022-10-19T02:20:28.247Z,31.90
2022-10-19T02:22:56.746Z,34.10
2022-10-19T02:25:25.480Z,30.10
2022-10-19T02:27:54.015Z,30.00
2022-10-19T02:30:22.425Z,31.70
2022-10-19T02:32:51.237Z,29.90
2022-10-19T02:35:19.379Z,28.40
2022-10-19T02:37:47.331Z,28.30
2022-10-19T02:40:15.421Z,27.80
2022-10-19T02:42:48.824Z,33.00
2022-10-19T02:45:26.104Z,25.30
2022-10-19T02:48:06.247Z,24.50
2022-10-19T02:50:34.478Z,23.80
2022-10-19T02:53:02.437Z,23.00
2022-10-19T02:55:31.297Z,25.00
2022-10-19T02:57:59.218Z,25.20
2022-10-19T03:00:27.089Z,28.30
2022-10-19T03:02:54.981Z,25.50
2022-10-19T03:05:22.976Z,28.70
2022-10-19T03:07:50.873Z,28.80
2022-10-19T03:10:18.721Z,26.40
2022-10-19T03:12:46.608Z,36.00
2022-10-19T03:15:17.987Z,33.20
2022-10-19T03:17:46.178Z,29.50
2022-10-19T03:20:13.978Z,36.40
2022-10-19T03:22:41.908Z,30.90
2022-10-19T03:25:09.873Z,29.80
2022-10-19T03:27:37.737Z,40.30
2022-10-19T03:30:05.977Z,33.30
2022-10-19T03:32:33.846Z,30.10
2022-10-19T03:35:01.845Z,32.10
2022-10-19T03:37:29.684Z,31.70
2022-10-19T03:39:57.680Z,26.40
2022-10-19T03:42:25.548Z,30.40
2022-10-19T03:44:53.355Z,30.30
2022-10-19T03:47:21.343Z,31.40
2022-10-19T03:49:50.495Z,26.60
2022-10-19T03:52:19.227Z,27.10
2022-10-19T03:54:50.288Z,27.70
2022-10-19T03:57:18.429Z,36.40
2022-10-19T03:59:46.370Z,38.30
2022-10-19T04:02:14.236Z,36.00
2022-10-19T04:04:42.215Z,35.90
2022-10-19T04:07:10.180Z,43.70
2022-10-19T04:09:38.146Z,32.40
2022-10-19T04:12:06.220Z,37.30
2022-10-19T04:14:52.532Z,34.40
2022-10-19T04:17:21.915Z,37.90
2022-10-19T04:19:49.819Z,37.60
2022-10-19T04:22:17.647Z,31.70
2022-10-19T04:24:45.627Z,32.30
2022-10-19T04:27:13.599Z,30.60
2022-10-19T04:29:41.566Z,37.60
2022-10-19T04:32:09.399Z,31.10
2022-10-19T04:34:39.920Z,31.70
2022-10-19T04:37:08.135Z,26.90
2022-10-19T04:39:39.635Z,30.80
2022-10-19T04:42:07.653Z,30.20
2022-10-19T04:44:35.630Z,28.40
2022-10-19T04:47:03.600Z,27.40
2022-10-19T04:49:31.670Z,28.30
2022-10-19T04:51:59.639Z,29.00
2022-10-19T04:54:27.813Z,26.70
2022-10-19T04:56:55.690Z,30.90
2022-10-19T04:59:23.596Z,30.60
2022-10-19T05:01:51.620Z,31.60
2022-10-19T05:04:19.481Z,27.40
2022-10-19T05:06:47.449Z,36.90
2022-10-19T05:09:15.421Z,33.80
2022-10-19T05:11:43.391Z,32.20
2022-10-19T05:14:11.467Z,28.00
2022-10-19T05:16:39.329Z,35.00
2022-10-19T05:19:07.615Z,36.70
2022-10-19T05:21:35.785Z,34.80
2022-10-19T05:24:04.091Z,32.40
2022-10-19T05:26:32.052Z,30.90
2022-10-19T05:29:04.548Z,32.60
2022-10-19T05:31:34.419Z,31.10
2022-10-19T05:34:04.368Z,41.50
2022-10-19T05:36:40.066Z,27.10
2022-10-19T05:39:16.437Z,30.60
2022-10-19T05:44:17.133Z,28.30
2022-10-19T05:46:45.993Z,30.80
2022-10-19T05:49:15.724Z,36.00
2022-10-19T05:51:44.392Z,33.10
2022-10-19T05:54:13.390Z,32.90
2022-10-19T05:56:42.505Z,43.30
2022-10-19T05:59:15.470Z,29.40
2022-10-19T06:01:43.677Z,32.60
2022-10-19T06:04:15.014Z,33.00
2022-10-19T06:06:43.575Z,35.40
2022-10-19T06:09:12.262Z,39.30
2022-10-19T06:11:42.075Z,33.10
2022-10-19T06:14:15.746Z,34.70
2022-10-19T06:16:46.281Z,31.90
2022-10-19T06:19:14.794Z,36.00
2022-10-19T06:21:45.812Z,33.50
2022-10-19T06:24:14.825Z,39.30
2022-10-19T06:26:42.992Z,34.10
2022-10-19T06:29:11.315Z,40.20
2022-10-19T06:31:39.445Z,36.70
2022-10-19T06:34:07.646Z,38.10
2022-10-19T06:36:35.694Z,33.40
2022-10-19T06:39:04.271Z,34.90
2022-10-19T06:41:32.860Z,32.30
2022-10-19T06:44:09.841Z,30.20
2022-10-19T06:46:38.631Z,33.40
2022-10-19T06:49:06.593Z,39.00
2022-10-19T06:51:34.672Z,33.30
2022-10-19T06:54:02.639Z,32.90
2022-10-19T06:56:30.611Z,33.30
2022-10-19T06:58:59.598Z,35.20
2022-10-19T07:01:27.528Z,33.40
2022-10-19T07:03:55.860Z,38.00
2022-10-19T07:06:24.430Z,40.40
2022-10-19T07:08:53.423Z,37.10
2022-10-19T07:11:22.672Z,35.30
2022-10-19T07:13:52.748Z,36.30
2022-10-19T07:16:21.760Z,36.10
2022-10-19T07:18:53.007Z,42.50
2022-10-19T07:21:23.317Z,38.50
2022-10-19T07:23:51.478Z,33.60
2022-10-19T07:26:27.277Z,39.70
2022-10-19T07:28:57.372Z,41.50
2022-10-19T07:31:27.585Z,37.30
2022-10-19T07:33:58.030Z,36.10
2022-10-19T07:36:27.715Z,40.60
2022-10-19T07:38:55.883Z,41.80
2022-10-19T07:41:26.053Z,37.50
2022-10-19T07:43:54.772Z,50.10
2022-10-19T07:46:25.835Z,42.40
2022-10-19T07:48:53.958Z,47.10
2022-10-19T07:51:22.806Z,51.80
2022-10-19T07:53:50.972Z,49.30
2022-10-19T07:56:24.674Z,57.20
2022-10-19T07:58:54.793Z,57.50
2022-10-19T08:01:25.937Z,57.40
2022-10-19T08:06:43.587Z,58.20
2022-10-19T08:09:27.652Z,59.10
2022-10-19T08:11:59.983Z,59.40
2022-10-19T08:14:27.979Z,53.30
2022-10-19T08:16:55.951Z,43.20
2022-10-19T08:19:24.534Z,45.90
2022-10-19T08:21:52.400Z,42.10
2022-10-19T08:24:20.883Z,47.30
2022-10-19T08:26:51.469Z,42.60
2022-10-19T08:29:21.201Z,45.60
2022-10-19T08:31:49.808Z,42.00
2022-10-19T08:34:18.285Z,45.10
2022-10-19T08:36:46.363Z,55.00
2022-10-19T08:39:14.743Z,45.00
2022-10-19T08:42:04.210Z,40.60
2022-10-19T08:44:47.238Z,42.80
2022-10-19T08:47:40.495Z,36.20
2022-10-19T08:50:25.363Z,36.70
2022-10-19T08:53:17.943Z,40.50
2022-10-19T08:56:04.812Z,43.20
2022-10-19T08:58:49.180Z,42.40
2022-10-19T09:01:40.054Z,52.80
2022-10-19T09:04:35.511Z,46.10
2022-10-19T09:07:30.395Z,47.50
2022-10-19T09:10:04.958Z,49.70
2022-10-19T09:12:42.111Z,46.60
2022-10-19T09:15:23.796Z,55.50
2022-10-19T09:17:51.865Z,47.10
2022-10-19T09:20:23.357Z,41.50
2022-10-19T09:23:28.864Z,40.40
2022-10-19T09:25:58.528Z,41.30
2022-10-19T09:28:44.994Z,41.60
2022-10-19T09:31:31.628Z,43.70
2022-10-19T09:34:21.063Z,44.40
2022-10-19T09:36:59.455Z,40.40
2022-10-19T09:39:29.971Z,36.10
2022-10-19T09:42:04.135Z,34.90
2022-10-19T09:44:32.601Z,41.80
2022-10-19T09:47:32.087Z,35.90
2022-10-19T09:50:27.316Z,38.50
2022-10-19T09:52:59.379Z,40.40
2022-10-19T09:55:29.194Z,39.20
2022-10-19T09:58:21.229Z,33.50
2022-10-19T10:00:52.096Z,33.60
2022-10-19T10:03:29.566Z,34.80
2022-10-19T10:06:10.650Z,33.10
2022-10-19T10:08:46.234Z,31.00
2022-10-19T10:11:23.776Z,34.20
2022-10-19T10:13:54.447Z,33.30
2022-10-19T10:16:29.365Z,32.70
2022-10-19T10:18:59.254Z,31.10
2022-10-19T10:21:34.789Z,32.30
2022-10-19T10:24:10.525Z,27.60
2022-10-19T10:26:50.613Z,32.20
2022-10-19T10:29:20.159Z,30.10
2022-10-19T10:32:03.440Z,31.80
2022-10-19T10:34:58.527Z,32.60
2022-10-19T10:37:39.022Z,30.20
2022-10-19T10:40:28.687Z,28.50
2022-10-19T10:43:02.417Z,25.80
2022-10-19T10:45:39.731Z,27.80
2022-10-19T10:48:14.716Z,23.70
2022-10-19T10:50:44.022Z,26.40
2022-10-19T10:53:33.695Z,29.80
2022-10-19T10:56:01.667Z,28.80
2022-10-19T10:58:48.530Z,27.80
2022-10-19T11:01:22.029Z,30.20
2022-10-19T11:03:57.355Z,31.10
2022-10-19T11:06:26.736Z,28.60
2022-10-19T11:09:11.894Z,26.60
2022-10-19T11:11:44.992Z,30.00
2022-10-19T11:14:34.966Z,33.50
2022-10-19T11:17:07.824Z,30.20
2022-10-19T11:19:35.655Z,29.80
2022-10-19T11:22:35.988Z,31.60
2022-10-19T11:25:43.442Z,33.40
2022-10-19T11:28:43.668Z,28.90
2022-10-19T11:31:47.578Z,32.00
2022-10-19T11:34:37.255Z,29.20
2022-10-19T11:37:30.418Z,30.50
2022-10-19T11:40:31.550Z,35.20
2022-10-19T11:42:59.540Z,32.50
2022-10-19T11:45:51.838Z,31.30
2022-10-19T11:48:25.515Z,32.70
2022-10-19T11:51:17.364Z,30.30
2022-10-19T11:54:14.952Z,33.50
2022-10-19T11:57:15.303Z,31.20
2022-10-19T12:00:14.440Z,26.30
2022-10-19T12:03:19.548Z,27.30
2022-10-19T12:06:08.204Z,32.50
2022-10-19T12:08:53.781Z,28.20
2022-10-19T12:11:39.165Z,27.70
2022-10-19T12:14:15.007Z,25.90
2022-10-19T12:16:47.606Z,25.50
2022-10-19T12:19:47.096Z,21.60
2022-10-19T12:22:23.984Z,21.40
2022-10-19T12:24:55.558Z,21.50
2022-10-19T12:27:33.734Z,18.50
2022-10-19T12:30:08.447Z,20.40
2022-10-19T12:33:14.938Z,23.20
2022-10-19T12:36:01.451Z,25.00
2022-10-19T12:38:50.728Z,20.50
2022-10-19T12:41:26.230Z,28.20
2022-10-19T12:44:21.119Z,24.60
2022-10-19T12:47:01.054Z,21.30
2022-10-19T12:49:29.184Z,23.70
2022-10-19T12:51:59.714Z,24.60
2022-10-19T12:54:33.517Z,20.00
2022-10-19T12:57:04.431Z,19.80
2022-10-19T12:59:35.600Z,20.10
2022-10-19T13:02:24.704Z,22.80
2022-10-19T13:04:57.180Z,23.20
2022-10-19T13:07:33.130Z,15.10
2022-10-19T13:10:07.754Z,20.50
2022-10-19T13:12:46.244Z,24.50
2022-10-19T13:15:33.462Z,16.80
2022-10-19T13:18:12.500Z,20.70
2022-10-19T13:23:13.467Z,39.60
2022-10-19T13:25:42.767Z,20.30
2022-10-19T13:28:10.917Z,19.40
2022-10-19T13:30:38.899Z,22.00
2022-10-19T13:33:25.601Z,20.80
2022-10-19T13:35:59.776Z,18.90
2022-10-19T13:39:08.742Z,15.70
2022-10-19T13:41:36.613Z,14.10
2022-10-19T13:44:14.243Z,20.90
2022-10-19T13:46:45.346Z,15.70
2022-10-19T13:49:22.943Z,14.10
2022-10-19T13:52:20.057Z,19.00
2022-10-19T13:55:03.123Z,23.40
2022-10-19T13:57:55.315Z,18.80
2022-10-19T14:00:46.992Z,14.80
2022-10-19T14:03:26.633Z,22.70
2022-10-19T14:06:17.449Z,17.20
2022-10-19T14:09:16.946Z,16.00
2022-10-19T14:11:48.492Z,16.10
2022-10-19T14:14:23.429Z,15.50
2022-10-19T14:16:59.882Z,13.80
2022-10-19T14:19:45.711Z,17.50
2022-10-19T14:22:21.636Z,13.70
2022-10-19T14:24:49.611Z,13.20
2022-10-19T14:27:24.697Z,12.90
2022-10-19T14:29:54.366Z,16.50
2022-10-19T14:32:28.248Z,15.80
2022-10-19T14:37:33.480Z,17.30
2022-10-19T14:40:24.791Z,15.70
2022-10-19T14:42:58.036Z,23.00
2022-10-19T14:45:30.079Z,19.50
2022-10-19T14:47:57.960Z,17.60
2022-10-19T14:50:55.010Z,17.40
2022-10-19T14:53:44.774Z,15.30
2022-10-19T14:56:18.905Z,16.20
2022-10-19T14:58:58.145Z,19.30
2022-10-19T15:01:26.782Z,17.30
2022-10-19T15:03:55.717Z,16.80
2022-10-19T15:06:27.665Z,17.00
2022-10-19T15:09:00.363Z,23.40
2022-10-19T15:11:36.725Z,24.50
2022-10-19T15:14:15.549Z,20.20
2022-10-19T15:17:00.932Z,19.10
2022-10-19T15:19:37.709Z,20.50
2022-10-19T15:22:36.953Z,21.50
2022-10-19T15:25:08.052Z,21.90
2022-10-19T15:27:40.282Z,18.30
2022-10-19T15:30:17.405Z,19.80
2022-10-19T15:32:47.732Z,21.10
2022-10-19T15:35:27.783Z,31.10
2022-10-19T15:38:23.408Z,26.90
2022-10-19T15:40:58.395Z,26.60
2022-10-19T15:43:35.424Z,28.10
2022-10-19T15:46:05.026Z,25.10
2022-10-19T15:48:41.795Z,22.00
2022-10-19T15:51:24.849Z,23.70
2022-10-19T15:53:52.900Z,29.90
2022-10-19T15:56:22.405Z,26.10
2022-10-19T15:58:52.108Z,28.20
2022-10-19T16:01:24.626Z,28.30
2022-10-19T16:03:54.810Z,28.70
2022-10-19T16:06:28.921Z,27.70
2022-10-19T16:08:58.859Z,27.80
2022-10-19T16:11:29.061Z,29.40
2022-10-19T16:13:56.994Z,32.40
2022-10-19T16:16:30.999Z,28.20
2022-10-19T16:19:00.235Z,28.40
2022-10-19T16:21:31.732Z,25.20
2022-10-19T16:24:00.099Z,30.50
2022-10-19T16:26:28.542Z,30.40
2022-10-19T16:28:56.622Z,35.80
2022-10-19T16:31:24.689Z,32.70
2022-10-19T16:33:55.783Z,24.50
2022-10-19T16:36:25.735Z,25.00
2022-10-19T16:38:53.819Z,28.70
2022-10-19T16:41:21.895Z,25.80
2022-10-19T16:43:54.777Z,27.30
2022-10-19T16:46:24.593Z,29.30
2022-10-19T16:48:53.376Z,24.80
2022-10-19T16:51:34.252Z,25.40
2022-10-19T16:54:05.293Z,26.40
2022-10-19T16:56:34.320Z,29.00
2022-10-19T16:59:05.208Z,27.30
2022-10-19T17:01:35.099Z,25.30
2022-10-19T17:04:03.428Z,26.00
2022-10-19T17:06:33.022Z,22.40
2022-10-19T17:11:49.150Z,29.20
2022-10-19T17:14:17.330Z,24.80
2022-10-19T17:16:45.279Z,29.70
2022-10-19T17:19:13.450Z,25.30
2022-10-19T17:21:42.604Z,27.90
2022-10-19T17:24:21.100Z,26.20
2022-10-19T17:26:51.955Z,22.60
2022-10-19T17:29:21.517Z,26.50
2022-10-19T17:31:49.856Z,29.90
2022-10-19T17:34:18.267Z,26.30
2022-10-19T17:36:46.964Z,30.40
2022-10-19T17:39:27.233Z,31.80
2022-10-19T17:42:02.075Z,38.30
2022-10-19T17:44:31.699Z,33.60
2022-10-19T17:47:00.934Z,30.60
2022-10-19T17:49:30.181Z,32.10
2022-10-19T17:51:58.741Z,31.30
2022-10-19T17:54:26.813Z,30.90
2022-10-19T17:56:54.984Z,30.90
2022-10-19T17:59:34.806Z,31.60
2022-10-19T18:02:10.998Z,29.20
2022-10-19T18:04:39.171Z,36.20
2022-10-19T18:07:07.029Z,37.00
2022-10-19T18:09:35.103Z,28.50
2022-10-19T18:12:06.385Z,25.80
2022-10-19T18:14:35.653Z,29.50
2022-10-19T18:17:03.619Z,23.80
2022-10-19T18:19:32.097Z,22.90
2022-10-19T18:22:00.073Z,22.30
2022-10-19T18:24:28.403Z,23.10
2022-10-19T18:26:56.736Z,23.20
2022-10-19T18:29:26.260Z,26.10
2022-10-19T18:31:55.219Z,24.00
2022-10-19T18:34:26.175Z,22.80
2022-10-19T18:36:55.001Z,24.30
2022-10-19T18:39:23.236Z,20.20
2022-10-19T18:41:54.599Z,25.50
2022-10-19T18:44:27.241Z,19.80
2022-10-19T18:46:57.908Z,20.30
2022-10-19T18:49:25.978Z,17.40
2022-10-19T18:51:55.786Z,19.30
2022-10-19T18:54:26.637Z,22.60
2022-10-19T18:56:55.444Z,20.70
2022-10-19T18:59:23.749Z,22.90
2022-10-19T19:01:52.314Z,30.50
2022-10-19T19:04:20.433Z,20.20
2022-10-19T19:06:48.401Z,23.20
2022-10-19T19:09:17.623Z,21.40
2022-10-19T19:11:45.983Z,19.60
2022-10-19T19:14:17.213Z,22.70
2022-10-19T19:16:45.798Z,19.60
2022-10-19T19:19:16.038Z,16.80
2022-10-19T19:21:45.056Z,17.10
2022-10-19T19:24:17.045Z,19.90
2022-10-19T19:26:49.564Z,17.50
2022-10-19T19:29:18.363Z,19.80
2022-10-19T19:31:47.981Z,21.10
2022-10-19T19:34:16.156Z,16.50
2022-10-19T19:36:48.360Z,17.20
2022-10-19T19:39:20.671Z,18.60
2022-10-19T19:41:50.201Z,18.40
2022-10-19T19:44:18.558Z,20.00
2022-10-19T19:46:46.541Z,15.90
2022-10-19T19:49:14.506Z,17.60
2022-10-19T19:51:42.896Z,14.60
2022-10-19T19:54:12.503Z,17.50
2022-10-19T19:56:42.440Z,16.40
2022-10-19T19:59:12.522Z,16.80
2022-10-19T20:01:41.015Z,19.90
2022-10-19T20:04:10.024Z,16.50
2022-10-19T20:06:39.409Z,18.00
2022-10-19T20:09:08.549Z,15.50
2022-10-19T20:11:41.257Z,17.20
2022-10-19T20:14:12.104Z,16.20
2022-10-19T20:16:40.085Z,15.90
2022-10-19T20:19:11.587Z,18.80
2022-10-19T20:21:40.335Z,18.30
2022-10-19T20:24:08.729Z,17.50
2022-10-19T20:26:36.886Z,15.40
2022-10-19T20:29:05.618Z,18.90
2022-10-19T20:31:39.361Z,16.10
2022-10-19T20:34:14.050Z,16.40
2022-10-19T20:36:43.095Z,19.20
2022-10-19T20:39:11.165Z,16.10
2022-10-19T20:41:39.545Z,17.80
2022-10-19T20:44:07.719Z,18.50
2022-10-19T20:46:37.328Z,14.20
2022-10-19T20:49:05.610Z,16.40
2022-10-19T20:51:36.882Z,21.20
2022-10-19T20:54:12.344Z,15.90
2022-10-19T20:56:41.806Z,12.80
2022-10-19T20:59:16.046Z,14.80
2022-10-19T21:01:45.964Z,14.00
2022-10-19T21:04:15.497Z,13.30
2022-10-19T21:06:46.710Z,12.60
2022-10-19T21:09:18.781Z,11.40
2022-10-19T21:11:48.347Z,12.10
2022-10-19T21:14:25.306Z,11.90
2022-10-19T21:16:58.620Z,11.30
2022-10-19T21:19:28.803Z,13.00
2022-10-19T21:22:01.995Z,12.00
2022-10-19T21:24:33.294Z,17.90
2022-10-19T21:27:05.316Z,12.60
2022-10-19T21:29:34.049Z,12.60
2022-10-19T21:32:02.952Z,12.90
2022-10-19T21:34:32.153Z,12.60
2022-10-19T21:37:00.314Z,12.00
2022-10-19T21:39:28.791Z,11.30
2022-10-19T21:41:57.133Z,10.90
2022-10-19T21:44:25.164Z,12.00
2022-10-19T21:46:53.204Z,16.30
2022-10-19T21:49:21.070Z,11.00
2022-10-19T21:51:52.324Z,9.10
2022-10-19T21:54:24.680Z,9.50
2022-10-19T21:56:53.505Z,12.40
2022-10-19T21:59:21.660Z,9.40
2022-10-19T22:01:49.645Z,13.40
2022-10-19T22:04:18.636Z,11.00
2022-10-19T22:06:46.688Z,10.10
2022-10-19T22:09:19.368Z,12.70
2022-10-19T22:11:47.852Z,10.60
2022-10-19T22:14:16.750Z,9.50
2022-10-19T22:16:45.120Z,8.80
2022-10-19T22:19:13.811Z,15.20
2022-10-19T22:21:41.653Z,10.30
2022-10-19T22:24:14.052Z,10.20
2022-10-19T22:26:45.536Z,13.10
2022-10-19T22:29:13.880Z,13.70
2022-10-19T22:31:41.842Z,8.90
2022-10-19T22:34:13.401Z,15.80
2022-10-19T22:36:41.448Z,11.20
2022-10-19T22:39:09.851Z,9.90
2022-10-19T22:41:37.678Z,12.60
2022-10-19T22:44:05.887Z,10.00
2022-10-19T22:46:33.759Z,13.00
2022-10-19T22:49:01.601Z,10.40
2022-10-19T22:51:30.001Z,13.10
2022-10-19T22:53:57.869Z,10.00
2022-10-19T22:56:25.736Z,14.00
2022-10-19T22:58:53.606Z,12.40
2022-10-19T23:01:21.533Z,11.20
2022-10-19T23:03:49.440Z,10.60
2022-10-19T23:06:17.272Z,9.80
2022-10-19T23:08:45.912Z,9.70
2022-10-19T23:11:15.002Z,8.70
2022-10-19T23:13:43.264Z,9.90
2022-10-19T23:16:11.288Z,6.70
2022-10-19T23:18:41.049Z,8.90
2022-10-19T23:21:12.746Z,10.90
2022-10-19T23:23:41.401Z,8.00
2022-10-19T23:26:19.495Z,10.70
2022-10-19T23:28:49.923Z,8.60
2022-10-19T23:31:21.169Z,11.00
2022-10-19T23:33:49.037Z,7.10
2022-10-19T23:36:21.037Z,6.60
2022-10-19T23:38:50.490Z,8.90
2022-10-19T23:41:19.627Z,12.20
2022-10-19T23:43:48.068Z,9.20
2022-10-19T23:46:15.948Z,7.80
2022-10-19T23:48:44.020Z,7.70
2022-10-19T23:51:14.882Z,9.00
2022-10-19T23:53:44.878Z,7.50
2022-10-19T23:56:30.199Z,10.80
2022-10-19T23:58:58.027Z,8.50
